sensor_id;sensor_type;location;lat;lon;timestamp;pressure;altitude;pressure_sealevel;temperature
65738;BMP280;52478;51.844;6.582;2023-06-14T00:01:08;101221.06;;;29.41
65738;BMP280;52478;51.844;6.582;2023-06-14T00:03:35;101218.81;;;29.39
65738;BMP280;52478;51.844;6.582;2023-06-14T00:06:01;101221.63;;;29.39
65738;BMP280;52478;51.844;6.582;2023-06-14T00:08:28;101226.50;;;29.39
65738;BMP280;52478;51.844;6.582;2023-06-14T00:10:54;101220.84;;;29.39
65738;BMP280;52478;51.844;6.582;2023-06-14T00:13:22;101225.03;;;29.38
65738;BMP280;52478;51.844;6.582;2023-06-14T00:15:48;101218.66;;;29.37
65738;BMP280;52478;51.844;6.582;2023-06-14T00:18:15;101215.84;;;29.37
65738;BMP280;52478;51.844;6.582;2023-06-14T00:20:41;101220.56;;;29.35
65738;BMP280;52478;51.844;6.582;2023-06-14T00:23:08;101227.69;;;29.36
65738;BMP280;52478;51.844;6.582;2023-06-14T00:25:34;101232.00;;;29.37
65738;BMP280;52478;51.844;6.582;2023-06-14T00:28:01;101229.75;;;29.35
65738;BMP280;52478;51.844;6.582;2023-06-14T00:30:29;101230.50;;;29.36
65738;BMP280;52478;51.844;6.582;2023-06-14T00:32:55;101229.75;;;29.35
65738;BMP280;52478;51.844;6.582;2023-06-14T00:35:22;101236.72;;;29.34
65738;BMP280;52478;51.844;6.582;2023-06-14T00:37:48;101239.53;;;29.34
65738;BMP280;52478;51.844;6.582;2023-06-14T00:40:15;101238.03;;;29.33
65738;BMP280;52478;51.844;6.582;2023-06-14T00:42:41;101242.94;;;29.33
65738;BMP280;52478;51.844;6.582;2023-06-14T00:45:09;101247.81;;;29.32
65738;BMP280;52478;51.844;6.582;2023-06-14T00:47:38;101251.22;;;29.31
65738;BMP280;52478;51.844;6.582;2023-06-14T00:50:07;101252.72;;;29.32
65738;BMP280;52478;51.844;6.582;2023-06-14T00:52:34;101251.97;;;29.31
65738;BMP280;52478;51.844;6.582;2023-06-14T00:55:00;101259.69;;;29.31
65738;BMP280;52478;51.844;6.582;2023-06-14T00:57:27;101261.72;;;29.30
65738;BMP280;52478;51.844;6.582;2023-06-14T00:59:55;101258.19;;;29.30
65738;BMP280;52478;51.844;6.582;2023-06-14T01:02:21;101259.50;;;29.29
65738;BMP280;52478;51.844;6.582;2023-06-14T01:04:51;101263.09;;;29.30
65738;BMP280;52478;51.844;6.582;2023-06-14T01:07:25;101259.50;;;29.29
65738;BMP280;52478;51.844;6.582;2023-06-14T01:10:06;101262.31;;;29.29
65738;BMP280;52478;51.844;6.582;2023-06-14T01:12:38;101257.25;;;29.28
65738;BMP280;52478;51.844;6.582;2023-06-14T01:15:06;101258.00;;;29.28
65738;BMP280;52478;51.844;6.582;2023-06-14T01:17:35;101259.50;;;29.29
65738;BMP280;52478;51.844;6.582;2023-06-14T01:20:03;101258.00;;;29.28
65738;BMP280;52478;51.844;6.582;2023-06-14T01:22:34;101252.34;;;29.28
65738;BMP280;52478;51.844;6.582;2023-06-14T01:25:03;101254.25;;;29.26
65738;BMP280;52478;51.844;6.582;2023-06-14T01:27:30;101252.22;;;29.26
65738;BMP280;52478;51.844;6.582;2023-06-14T01:29:58;101253.50;;;29.25
65738;BMP280;52478;51.844;6.582;2023-06-14T01:32:28;101252.03;;;29.24
65738;BMP280;52478;51.844;6.582;2023-06-14T01:34:55;101250.53;;;29.23
65738;BMP280;52478;51.844;6.582;2023-06-14T01:37:22;101249.75;;;29.23
65738;BMP280;52478;51.844;6.582;2023-06-14T01:39:48;101255.41;;;29.23
65738;BMP280;52478;51.844;6.582;2023-06-14T01:42:17;101246.19;;;29.22
65738;BMP280;52478;51.844;6.582;2023-06-14T01:44:44;101246.94;;;29.23
65738;BMP280;52478;51.844;6.582;2023-06-14T01:47:12;101254.66;;;29.22
65738;BMP280;52478;51.844;6.582;2023-06-14T01:49:40;101253.16;;;29.21
65738;BMP280;52478;51.844;6.582;2023-06-14T01:52:07;101260.31;;;29.22
65738;BMP280;52478;51.844;6.582;2023-06-14T01:54:35;101255.97;;;29.21
65738;BMP280;52478;51.844;6.582;2023-06-14T01:57:03;101247.50;;;29.21
65738;BMP280;52478;51.844;6.582;2023-06-14T01:59:30;101251.66;;;29.20
65738;BMP280;52478;51.844;6.582;2023-06-14T02:02:00;101246.78;;;29.21
65738;BMP280;52478;51.844;6.582;2023-06-14T02:04:26;101246.00;;;29.20
65738;BMP280;52478;51.844;6.582;2023-06-14T02:06:53;101247.38;;;29.19
65738;BMP280;52478;51.844;6.582;2023-06-14T02:09:19;101245.88;;;29.18
65738;BMP280;52478;51.844;6.582;2023-06-14T02:11:45;101248.69;;;29.18
65738;BMP280;52478;51.844;6.582;2023-06-14T02:14:12;101250.00;;;29.17
65738;BMP280;52478;51.844;6.582;2023-06-14T02:16:41;101240.22;;;29.18
65738;BMP280;52478;51.844;6.582;2023-06-14T02:19:14;101240.78;;;29.17
65738;BMP280;52478;51.844;6.582;2023-06-14T02:21:40;101248.50;;;29.16
65738;BMP280;52478;51.844;6.582;2023-06-14T02:24:07;101247.91;;;29.18
65738;BMP280;52478;51.844;6.582;2023-06-14T02:26:33;101243.59;;;29.17
65738;BMP280;52478;51.844;6.582;2023-06-14T02:29:00;101244.19;;;29.15
65738;BMP280;52478;51.844;6.582;2023-06-14T02:31:26;101251.31;;;29.16
65738;BMP280;52478;51.844;6.582;2023-06-14T02:33:55;101238.53;;;29.15
65738;BMP280;52478;51.844;6.582;2023-06-14T02:36:22;101249.81;;;29.15
65738;BMP280;52478;51.844;6.582;2023-06-14T02:38:48;101259.59;;;29.14
65738;BMP280;52478;51.844;6.582;2023-06-14T02:41:15;101245.50;;;29.14
65738;BMP280;52478;51.844;6.582;2023-06-14T02:43:41;101253.97;;;29.14
65738;BMP280;52478;51.844;6.582;2023-06-14T02:46:07;101252.50;;;29.13
65738;BMP280;52478;51.844;6.582;2023-06-14T02:48:34;101251.72;;;29.13
65738;BMP280;52478;51.844;6.582;2023-06-14T02:51:02;101252.50;;;29.13
65738;BMP280;52478;51.844;6.582;2023-06-14T02:53:28;101262.22;;;29.12
65738;BMP280;52478;51.844;6.582;2023-06-14T02:55:55;101256.59;;;29.12
65738;BMP280;52478;51.844;6.582;2023-06-14T02:58:21;101253.78;;;29.12
65738;BMP280;52478;51.844;6.582;2023-06-14T03:00:50;101255.09;;;29.11
65738;BMP280;52478;51.844;6.582;2023-06-14T03:03:17;101263.56;;;29.11
65738;BMP280;52478;51.844;6.582;2023-06-14T03:05:48;101266.38;;;29.11
65738;BMP280;52478;51.844;6.582;2023-06-14T03:08:16;101277.66;;;29.11
65738;BMP280;52478;51.844;6.582;2023-06-14T03:10:45;101277.50;;;29.09
65738;BMP280;52478;51.844;6.582;2023-06-14T03:13:12;101271.84;;;29.09
65738;BMP280;52478;51.844;6.582;2023-06-14T03:15:39;101269.78;;;29.10
65738;BMP280;52478;51.844;6.582;2023-06-14T03:18:07;101273.19;;;29.08
65738;BMP280;52478;51.844;6.582;2023-06-14T03:20:34;101278.06;;;29.08
65738;BMP280;52478;51.844;6.582;2023-06-14T03:23:01;101280.13;;;29.07
65738;BMP280;52478;51.844;6.582;2023-06-14T03:25:29;101284.44;;;29.08
65738;BMP280;52478;51.844;6.582;2023-06-14T03:27:56;101290.66;;;29.07
65738;BMP280;52478;51.844;6.582;2023-06-14T03:30:23;101288.59;;;29.07
65738;BMP280;52478;51.844;6.582;2023-06-14T03:32:49;101300.63;;;29.08
65738;BMP280;52478;51.844;6.582;2023-06-14T03:35:17;101304.78;;;29.07
65738;BMP280;52478;51.844;6.582;2023-06-14T03:37:44;101294.22;;;29.07
65738;BMP280;52478;51.844;6.582;2023-06-14T03:40:12;101291.22;;;29.05
65738;BMP280;52478;51.844;6.582;2023-06-14T03:42:41;101295.38;;;29.04
65738;BMP280;52478;51.844;6.582;2023-06-14T03:45:07;101303.28;;;29.06
65738;BMP280;52478;51.844;6.582;2023-06-14T03:47:34;101302.50;;;29.05
65738;BMP280;52478;51.844;6.582;2023-06-14T03:50:01;101296.88;;;29.05
65738;BMP280;52478;51.844;6.582;2023-06-14T03:52:27;101303.84;;;29.04
65738;BMP280;52478;51.844;6.582;2023-06-14T03:54:54;101308.13;;;29.05
65738;BMP280;52478;51.844;6.582;2023-06-14T03:57:21;101311.16;;;29.07
65738;BMP280;52478;51.844;6.582;2023-06-14T03:59:49;101310.97;;;29.05
65738;BMP280;52478;51.844;6.582;2023-06-14T04:02:16;101313.97;;;29.07
65738;BMP280;52478;51.844;6.582;2023-06-14T04:04:43;101319.59;;;29.07
65738;BMP280;52478;51.844;6.582;2023-06-14T04:07:10;101315.47;;;29.08
65738;BMP280;52478;51.844;6.582;2023-06-14T04:09:37;101319.03;;;29.09
65738;BMP280;52478;51.844;6.582;2023-06-14T04:12:04;101325.44;;;29.09
65738;BMP280;52478;51.844;6.582;2023-06-14T04:14:31;101332.38;;;29.08
65738;BMP280;52478;51.844;6.582;2023-06-14T04:16:59;101331.22;;;29.11
65738;BMP280;52478;51.844;6.582;2023-06-14T04:19:26;101336.88;;;29.11
65738;BMP280;52478;51.844;6.582;2023-06-14T04:21:52;101332.72;;;29.12
65738;BMP280;52478;51.844;6.582;2023-06-14T04:24:19;101343.28;;;29.12
65738;BMP280;52478;51.844;6.582;2023-06-14T04:26:45;101346.25;;;29.14
65738;BMP280;52478;51.844;6.582;2023-06-14T04:29:13;101344.19;;;29.14
65738;BMP280;52478;51.844;6.582;2023-06-14T04:31:41;101350.59;;;29.15
65738;BMP280;52478;51.844;6.582;2023-06-14T04:34:09;101350.03;;;29.16
65738;BMP280;52478;51.844;6.582;2023-06-14T04:36:41;101350.22;;;29.18
65738;BMP280;52478;51.844;6.582;2023-06-14T04:39:14;101349.44;;;29.18
65738;BMP280;52478;51.844;6.582;2023-06-14T04:41:40;101350.22;;;29.18
65738;BMP280;52478;51.844;6.582;2023-06-14T04:44:07;101358.81;;;29.20
65738;BMP280;52478;51.844;6.582;2023-06-14T04:46:35;101356.97;;;29.15
65738;BMP280;52478;51.844;6.582;2023-06-14T04:49:10;101357.50;;;29.21
65738;BMP280;52478;51.844;6.582;2023-06-14T04:51:39;101361.81;;;29.22
65738;BMP280;52478;51.844;6.582;2023-06-14T04:54:06;101361.81;;;29.22
65738;BMP280;52478;51.844;6.582;2023-06-14T04:56:39;101366.31;;;29.25
65738;BMP280;52478;51.844;6.582;2023-06-14T04:59:05;101359.00;;;29.22
65738;BMP280;52478;51.844;6.582;2023-06-14T05:01:32;101358.63;;;29.26
65738;BMP280;52478;51.844;6.582;2023-06-14T05:03:59;101362.19;;;29.26
65738;BMP280;52478;51.844;6.582;2023-06-14T05:06:28;101362.94;;;29.27
65738;BMP280;52478;51.844;6.582;2023-06-14T05:08:55;101368.00;;;29.28
65738;BMP280;52478;51.844;6.582;2023-06-14T05:11:22;101373.09;;;29.30
65738;BMP280;52478;51.844;6.582;2023-06-14T05:13:49;101373.81;;;29.30
65738;BMP280;52478;51.844;6.582;2023-06-14T05:16:15;101380.19;;;29.30
65738;BMP280;52478;51.844;6.582;2023-06-14T05:18:44;101387.34;;;29.31
65738;BMP280;52478;51.844;6.582;2023-06-14T05:21:11;101383.22;;;29.32
65738;BMP280;52478;51.844;6.582;2023-06-14T05:23:39;101389.63;;;29.33
65738;BMP280;52478;51.844;6.582;2023-06-14T05:26:05;101387.53;;;29.33
65738;BMP280;52478;51.844;6.582;2023-06-14T05:28:31;101391.09;;;29.34
65738;BMP280;52478;51.844;6.582;2023-06-14T05:30:58;101386.97;;;29.35
65738;BMP280;52478;51.844;6.582;2023-06-14T05:33:25;101388.50;;;29.36
65738;BMP280;52478;51.844;6.582;2023-06-14T05:35:51;101385.81;;;29.38
65738;BMP280;52478;51.844;6.582;2023-06-14T05:38:18;101392.94;;;29.39
65738;BMP280;52478;51.844;6.582;2023-06-14T05:40:46;101393.16;;;29.41
65738;BMP280;52478;51.844;6.582;2023-06-14T05:43:12;101394.63;;;29.42
65738;BMP280;52478;51.844;6.582;2023-06-14T05:45:39;101397.44;;;29.42
65738;BMP280;52478;51.844;6.582;2023-06-14T05:48:05;101394.81;;;29.44
65738;BMP280;52478;51.844;6.582;2023-06-14T05:50:32;101393.50;;;29.45
65738;BMP280;52478;51.844;6.582;2023-06-14T05:52:58;101403.47;;;29.46
65738;BMP280;52478;51.844;6.582;2023-06-14T05:55:25;101399.31;;;29.47
65738;BMP280;52478;51.844;6.582;2023-06-14T05:57:53;101413.63;;;29.49
65738;BMP280;52478;51.844;6.582;2023-06-14T06:00:20;101409.47;;;29.50
65738;BMP280;52478;51.844;6.582;2023-06-14T06:02:47;101406.81;;;29.52
65738;BMP280;52478;51.844;6.582;2023-06-14T06:05:14;101408.31;;;29.53
65738;BMP280;52478;51.844;6.582;2023-06-14T06:07:42;101419.78;;;29.55
65738;BMP280;52478;51.844;6.582;2023-06-14T06:10:09;101418.47;;;29.56
65738;BMP280;52478;51.844;6.582;2023-06-14T06:12:36;101425.59;;;29.57
65738;BMP280;52478;51.844;6.582;2023-06-14T06:15:05;101420.13;;;29.59
65738;BMP280;52478;51.844;6.582;2023-06-14T06:17:33;101416.56;;;29.58
65738;BMP280;52478;51.844;6.582;2023-06-14T06:19:59;101421.06;;;29.61
65738;BMP280;52478;51.844;6.582;2023-06-14T06:22:25;101421.78;;;29.62
65738;BMP280;52478;51.844;6.582;2023-06-14T06:24:52;101427.63;;;29.64
65738;BMP280;52478;51.844;6.582;2023-06-14T06:27:19;101420.66;;;29.65
65738;BMP280;52478;51.844;6.582;2023-06-14T06:29:45;101421.41;;;29.65
65738;BMP280;52478;51.844;6.582;2023-06-14T06:32:15;101427.22;;;29.67
65738;BMP280;52478;51.844;6.582;2023-06-14T06:34:41;101433.81;;;29.70
65738;BMP280;52478;51.844;6.582;2023-06-14T06:37:07;101435.28;;;29.71
65738;BMP280;52478;51.844;6.582;2023-06-14T06:39:34;101437.56;;;29.72
65738;BMP280;52478;51.844;6.582;2023-06-14T06:42:01;101445.44;;;29.74
65738;BMP280;52478;51.844;6.582;2023-06-14T06:44:27;101452.59;;;29.75
65738;BMP280;52478;51.844;6.582;2023-06-14T06:46:54;101455.59;;;29.77
65738;BMP280;52478;51.844;6.582;2023-06-14T06:49:21;101452.22;;;29.78
65738;BMP280;52478;51.844;6.582;2023-06-14T06:51:59;101452.94;;;29.79
65738;BMP280;52478;51.844;6.582;2023-06-14T06:54:26;101455.97;;;29.81
65738;BMP280;52478;51.844;6.582;2023-06-14T06:56:53;101457.44;;;29.82
65738;BMP280;52478;51.844;6.582;2023-06-14T06:59:19;101459.72;;;29.83
65738;BMP280;52478;51.844;6.582;2023-06-14T07:01:46;101460.44;;;29.84
65738;BMP280;52478;51.844;6.582;2023-06-14T07:04:13;101457.03;;;29.85
65738;BMP280;52478;51.844;6.582;2023-06-14T07:06:41;101462.13;;;29.87
65738;BMP280;52478;51.844;6.582;2023-06-14T07:09:08;101467.56;;;29.85
65738;BMP280;52478;51.844;6.582;2023-06-14T07:11:37;101466.44;;;29.88
65738;BMP280;52478;51.844;6.582;2023-06-14T07:14:04;101469.09;;;29.86
65738;BMP280;52478;51.844;6.582;2023-06-14T07:16:31;101470.19;;;29.90
65738;BMP280;52478;51.844;6.582;2023-06-14T07:18:57;101468.13;;;29.91
65738;BMP280;52478;51.844;6.582;2023-06-14T07:21:24;101473.22;;;29.92
65738;BMP280;52478;51.844;6.582;2023-06-14T07:23:52;101473.91;;;29.93
65738;BMP280;52478;51.844;6.582;2023-06-14T07:26:19;101481.06;;;29.94
65738;BMP280;52478;51.844;6.582;2023-06-14T07:28:46;101471.31;;;29.95
65738;BMP280;52478;51.844;6.582;2023-06-14T07:31:12;101479.78;;;29.95
65738;BMP280;52478;51.844;6.582;2023-06-14T07:33:40;101474.28;;;29.97
65738;BMP280;52478;51.844;6.582;2023-06-14T07:36:07;101478.44;;;29.96
65738;BMP280;52478;51.844;6.582;2023-06-14T07:38:33;101479.34;;;29.98
65738;BMP280;52478;51.844;6.582;2023-06-14T07:41:01;101480.88;;;29.60
65738;BMP280;52478;51.844;6.582;2023-06-14T07:43:28;101476.00;;;29.06
65738;BMP280;52478;51.844;6.582;2023-06-14T07:45:54;101481.91;;;28.63
65738;BMP280;52478;51.844;6.582;2023-06-14T07:48:22;101473.78;;;28.82
65738;BMP280;52478;51.844;6.582;2023-06-14T07:50:48;101482.59;;;29.01
65738;BMP280;52478;51.844;6.582;2023-06-14T07:53:15;101491.94;;;29.19
65738;BMP280;52478;51.844;6.582;2023-06-14T07:55:41;101481.75;;;29.30
65738;BMP280;52478;51.844;6.582;2023-06-14T07:58:09;101484.75;;;29.40
65738;BMP280;52478;51.844;6.582;2023-06-14T08:00:36;101489.59;;;29.47
65738;BMP280;52478;51.844;6.582;2023-06-14T08:03:03;101480.19;;;29.52
65738;BMP280;52478;51.844;6.582;2023-06-14T08:05:29;101480.53;;;29.56
65738;BMP280;52478;51.844;6.582;2023-06-14T08:07:56;101487.31;;;29.60
65738;BMP280;52478;51.844;6.582;2023-06-14T08:10:23;101493.09;;;29.62
65738;BMP280;52478;51.844;6.582;2023-06-14T08:12:49;101496.84;;;29.65
65738;BMP280;52478;51.844;6.582;2023-06-14T08:15:17;101492.91;;;29.68
65738;BMP280;52478;51.844;6.582;2023-06-14T08:17:44;101497.38;;;29.71
65738;BMP280;52478;51.844;6.582;2023-06-14T08:20:12;101486.84;;;29.71
65738;BMP280;52478;51.844;6.582;2023-06-14T08:22:38;101493.44;;;29.74
65738;BMP280;52478;51.844;6.582;2023-06-14T08:25:08;101500.00;;;29.76
65738;BMP280;52478;51.844;6.582;2023-06-14T08:27:34;101499.44;;;29.78
65738;BMP280;52478;51.844;6.582;2023-06-14T08:30:01;101492.44;;;29.79
65738;BMP280;52478;51.844;6.582;2023-06-14T08:32:29;101492.66;;;29.81
65738;BMP280;52478;51.844;6.582;2023-06-14T08:34:55;101493.38;;;29.81
65738;BMP280;52478;51.844;6.582;2023-06-14T08:37:22;101490.16;;;29.85
65738;BMP280;52478;51.844;6.582;2023-06-14T08:39:48;101483.22;;;29.86
65738;BMP280;52478;51.844;6.582;2023-06-14T08:42:15;101482.59;;;29.87
65738;BMP280;52478;51.844;6.582;2023-06-14T08:44:43;101489.19;;;29.90
65738;BMP280;52478;51.844;6.582;2023-06-14T08:47:10;101490.72;;;29.91
65738;BMP280;52478;51.844;6.582;2023-06-14T08:49:40;101478.09;;;29.92
65738;BMP280;52478;51.844;6.582;2023-06-14T08:52:10;101472.59;;;29.94
65738;BMP280;52478;51.844;6.582;2023-06-14T08:54:38;101471.31;;;29.95
65738;BMP280;52478;51.844;6.582;2023-06-14T08:57:10;101474.28;;;29.97
65738;BMP280;52478;51.844;6.582;2023-06-14T08:59:39;101468.81;;;29.99
65738;BMP280;52478;51.844;6.582;2023-06-14T09:02:11;101471.66;;;29.99
65738;BMP280;52478;51.844;6.582;2023-06-14T09:04:41;101475.97;;;30.00
65738;BMP280;52478;51.844;6.582;2023-06-14T09:07:08;101481.63;;;30.00
65738;BMP280;52478;51.844;6.582;2023-06-14T09:09:38;101469.00;;;30.01
65738;BMP280;52478;51.844;6.582;2023-06-14T09:12:07;101476.72;;;30.00
65738;BMP280;52478;51.844;6.582;2023-06-14T09:14:35;101474.66;;;30.01
65738;BMP280;52478;51.844;6.582;2023-06-14T09:17:04;101480.31;;;30.01
65738;BMP280;52478;51.844;6.582;2023-06-14T09:19:30;101483.13;;;30.01
65738;BMP280;52478;51.844;6.582;2023-06-14T09:21:58;101474.66;;;30.01
65738;BMP280;52478;51.844;6.582;2023-06-14T09:24:24;101486.69;;;30.01
65738;BMP280;52478;51.844;6.582;2023-06-14T09:26:51;101493.66;;;30.00
65738;BMP280;52478;51.844;6.582;2023-06-14T09:29:18;101487.09;;;29.98
65738;BMP280;52478;51.844;6.582;2023-06-14T09:31:46;101482.94;;;29.99
65738;BMP280;52478;51.844;6.582;2023-06-14T09:34:12;101487.09;;;29.98
65738;BMP280;52478;51.844;6.582;2023-06-14T09:36:40;101502.53;;;29.97
65738;BMP280;52478;51.844;6.582;2023-06-14T09:39:09;101506.66;;;29.96
65738;BMP280;52478;51.844;6.582;2023-06-14T09:41:37;101493.13;;;29.94
65738;BMP280;52478;51.844;6.582;2023-06-14T09:44:05;101502.16;;;29.93
65738;BMP280;52478;51.844;6.582;2023-06-14T09:46:32;101495.81;;;29.92
65738;BMP280;52478;51.844;6.582;2023-06-14T09:49:00;101505.56;;;29.91
65738;BMP280;52478;51.844;6.582;2023-06-14T09:51:28;101504.06;;;29.90
65738;BMP280;52478;51.844;6.582;2023-06-14T09:53:58;101510.28;;;29.89
65738;BMP280;52478;51.844;6.582;2023-06-14T09:56:28;101506.72;;;29.88
65738;BMP280;52478;51.844;6.582;2023-06-14T09:58:56;101505.97;;;29.88
65738;BMP280;52478;51.844;6.582;2023-06-14T10:01:24;101499.22;;;29.83
65738;BMP280;52478;51.844;6.582;2023-06-14T10:03:55;101497.69;;;29.82
65738;BMP280;52478;51.844;6.582;2023-06-14T10:06:22;101508.63;;;29.86
65738;BMP280;52478;51.844;6.582;2023-06-14T10:08:50;101509.19;;;29.84
65738;BMP280;52478;51.844;6.582;2023-06-14T10:11:18;101518.38;;;29.85
65738;BMP280;52478;51.844;6.582;2023-06-14T10:13:47;101510.53;;;29.83
65738;BMP280;52478;51.844;6.582;2023-06-14T10:16:18;101505.63;;;29.84
65738;BMP280;52478;51.844;6.582;2023-06-14T10:18:50;101504.88;;;29.83
65738;BMP280;52478;51.844;6.582;2023-06-14T10:21:22;101512.59;;;29.83
65738;BMP280;52478;51.844;6.582;2023-06-14T10:23:51;101501.84;;;29.81
65738;BMP280;52478;51.844;6.582;2023-06-14T10:26:22;101508.25;;;29.82
65738;BMP280;52478;51.844;6.582;2023-06-14T10:28:58;101502.59;;;29.82
65738;BMP280;52478;51.844;6.582;2023-06-14T10:31:43;101496.19;;;29.81
65738;BMP280;52478;51.844;6.582;2023-06-14T10:34:10;101511.66;;;29.80
65738;BMP280;52478;51.844;6.582;2023-06-14T10:36:37;101499.59;;;29.80
65738;BMP280;52478;51.844;6.582;2023-06-14T10:39:06;101490.97;;;29.78
65738;BMP280;52478;51.844;6.582;2023-06-14T10:41:35;101493.94;;;29.80
65738;BMP280;52478;51.844;6.582;2023-06-14T10:47:24;101499.59;;;29.80
65738;BMP280;52478;51.844;6.582;2023-06-14T10:49:52;101500.91;;;29.79
65738;BMP280;52478;51.844;6.582;2023-06-14T10:52:22;101497.38;;;29.78
65738;BMP280;52478;51.844;6.582;2023-06-14T10:55:08;101503.75;;;29.79
65738;BMP280;52478;51.844;6.582;2023-06-14T10:57:42;101499.44;;;29.78
65738;BMP280;52478;51.844;6.582;2023-06-14T11:00:10;101483.81;;;29.77
65738;BMP280;52478;51.844;6.582;2023-06-14T11:03:31;101483.81;;;29.77
65738;BMP280;52478;51.844;6.582;2023-06-14T11:06:12;101495.13;;;29.77
65738;BMP280;52478;51.844;6.582;2023-06-14T11:11:32;101499.06;;;29.74
65738;BMP280;52478;51.844;6.582;2023-06-14T11:14:00;101493.59;;;29.76
65738;BMP280;52478;51.844;6.582;2023-06-14T11:16:27;101496.41;;;29.76
65738;BMP280;52478;51.844;6.582;2023-06-14T11:18:55;101490.22;;;29.77
65738;BMP280;52478;51.844;6.582;2023-06-14T11:21:21;101487.94;;;29.76
65738;BMP280;52478;51.844;6.582;2023-06-14T11:23:50;101487.94;;;29.76
65738;BMP280;52478;51.844;6.582;2023-06-14T11:26:24;101482.28;;;29.76
65738;BMP280;52478;51.844;6.582;2023-06-14T11:28:55;101493.59;;;29.76
65738;BMP280;52478;51.844;6.582;2023-06-14T11:31:22;101481.59;;;29.75
65738;BMP280;52478;51.844;6.582;2023-06-14T11:33:49;101493.59;;;29.76
65738;BMP280;52478;51.844;6.582;2023-06-14T11:36:17;101483.06;;;29.76
65738;BMP280;52478;51.844;6.582;2023-06-14T11:38:43;101493.59;;;29.76
65738;BMP280;52478;51.844;6.582;2023-06-14T11:41:10;101488.69;;;29.76
65738;BMP280;52478;51.844;6.582;2023-06-14T11:43:36;101477.41;;;29.76
65738;BMP280;52478;51.844;6.582;2023-06-14T11:46:03;101486.81;;;29.79
65738;BMP280;52478;51.844;6.582;2023-06-14T11:48:37;101481.75;;;29.77
65738;BMP280;52478;51.844;6.582;2023-06-14T11:51:04;101483.97;;;29.79
65738;BMP280;52478;51.844;6.582;2023-06-14T11:53:32;101477.00;;;29.80
65738;BMP280;52478;51.844;6.582;2023-06-14T11:55:59;101474.19;;;29.80
65738;BMP280;52478;51.844;6.582;2023-06-14T11:58:25;101480.03;;;29.82
65738;BMP280;52478;51.844;6.582;2023-06-14T12:00:53;101486.41;;;29.82
65738;BMP280;52478;51.844;6.582;2023-06-14T12:03:22;101488.50;;;29.82
65738;BMP280;52478;51.844;6.582;2023-06-14T12:05:50;101488.50;;;29.82
65738;BMP280;52478;51.844;6.582;2023-06-14T12:08:16;101487.16;;;29.83
65738;BMP280;52478;51.844;6.582;2023-06-14T12:10:45;101480.03;;;29.82
65738;BMP280;52478;51.844;6.582;2023-06-14T12:13:12;101497.69;;;29.82
65738;BMP280;52478;51.844;6.582;2023-06-14T12:15:39;101494.13;;;29.82
65738;BMP280;52478;51.844;6.582;2023-06-14T12:18:06;101489.84;;;29.81
65738;BMP280;52478;51.844;6.582;2023-06-14T12:20:33;101484.91;;;29.81
65738;BMP280;52478;51.844;6.582;2023-06-14T12:23:03;101484.75;;;29.79
65738;BMP280;52478;51.844;6.582;2023-06-14T12:25:31;101483.44;;;29.80
65738;BMP280;52478;51.844;6.582;2023-06-14T12:28:03;101481.16;;;29.79
65738;BMP280;52478;51.844;6.582;2023-06-14T12:30:29;101483.97;;;29.79
65738;BMP280;52478;51.844;6.582;2023-06-14T12:32:56;101475.50;;;29.79
65738;BMP280;52478;51.844;6.582;2023-06-14T12:35:22;101475.50;;;29.79
65738;BMP280;52478;51.844;6.582;2023-06-14T12:37:49;101476.28;;;29.79
65738;BMP280;52478;51.844;6.582;2023-06-14T12:40:15;101485.34;;;29.78
65738;BMP280;52478;51.844;6.582;2023-06-14T12:42:42;101484.56;;;29.77
65738;BMP280;52478;51.844;6.582;2023-06-14T12:45:10;101478.91;;;29.77
65738;BMP280;52478;51.844;6.582;2023-06-14T12:47:37;101474.59;;;29.76
65738;BMP280;52478;51.844;6.582;2023-06-14T12:50:04;101481.00;;;29.77
65738;BMP280;52478;51.844;6.582;2023-06-14T12:52:30;101486.66;;;29.77
65738;BMP280;52478;51.844;6.582;2023-06-14T12:55:01;101478.19;;;29.77
65738;BMP280;52478;51.844;6.582;2023-06-14T12:57:28;101485.34;;;29.78
65738;BMP280;52478;51.844;6.582;2023-06-14T12:59:54;101486.66;;;29.77
65738;BMP280;52478;51.844;6.582;2023-06-14T13:02:22;101488.69;;;29.76
65738;BMP280;52478;51.844;6.582;2023-06-14T13:04:49;101500.00;;;29.76
65738;BMP280;52478;51.844;6.582;2023-06-14T13:07:16;101485.88;;;29.76
65738;BMP280;52478;51.844;6.582;2023-06-14T13:09:43;101487.94;;;29.76
65738;BMP280;52478;51.844;6.582;2023-06-14T13:12:09;101489.47;;;29.77
65738;BMP280;52478;51.844;6.582;2023-06-14T13:14:37;101483.81;;;29.77
65738;BMP280;52478;51.844;6.582;2023-06-14T13:17:04;101482.28;;;29.76
65738;BMP280;52478;51.844;6.582;2023-06-14T13:19:32;101477.41;;;29.76
65738;BMP280;52478;51.844;6.582;2023-06-14T13:21:58;101488.69;;;29.76
65738;BMP280;52478;51.844;6.582;2023-06-14T13:24:25;101476.66;;;29.76
65738;BMP280;52478;51.844;6.582;2023-06-14T13:26:51;101490.75;;;29.76
65738;BMP280;52478;51.844;6.582;2023-06-14T13:29:18;101492.88;;;29.75
65738;BMP280;52478;51.844;6.582;2023-06-14T13:31:44;101490.75;;;29.76
65738;BMP280;52478;51.844;6.582;2023-06-14T13:34:11;101492.09;;;29.75
65738;BMP280;52478;51.844;6.582;2023-06-14T13:36:39;101481.59;;;29.75
65738;BMP280;52478;51.844;6.582;2023-06-14T13:39:06;101475.94;;;29.75
65738;BMP280;52478;51.844;6.582;2023-06-14T13:41:32;101475.16;;;29.75
65738;BMP280;52478;51.844;6.582;2023-06-14T13:44:00;101478.75;;;29.75
65738;BMP280;52478;51.844;6.582;2023-06-14T13:46:29;101480.81;;;29.75
65738;BMP280;52478;51.844;6.582;2023-06-14T13:48:56;101486.47;;;29.75
65738;BMP280;52478;51.844;6.582;2023-06-14T13:51:22;101469.53;;;29.75
65738;BMP280;52478;51.844;6.582;2023-06-14T13:53:50;101471.00;;;29.76
65738;BMP280;52478;51.844;6.582;2023-06-14T13:56:17;101475.16;;;29.75
65738;BMP280;52478;51.844;6.582;2023-06-14T13:58:44;101467.47;;;29.75
65738;BMP280;52478;51.844;6.582;2023-06-14T14:01:10;101475.16;;;29.75
65738;BMP280;52478;51.844;6.582;2023-06-14T14:03:37;101463.13;;;29.74
65738;BMP280;52478;51.844;6.582;2023-06-14T14:06:04;101462.38;;;29.74